Time;durP1;ratioP1;P1;durP2;ratioP2;P2;SDS_P1;SDS_P2;PMS_P1;PMS_P2;Temp;Humidity;BMP_temperature;BMP_pressure;BME280_temperature;BME280_humidity;BME280_pressure;Samples;Min_cycle;Max_cycle;Signal;HPM_P1;HPM_P2
2022/01/31 00:02:23;;;;;;;14.27;5.82;;;6.40;71.40;;;;;;5068283;28;20067;-74
2022/01/31 00:04:48;;;;;;;14.25;5.63;;;6.40;71.50;;;;;;5061861;28;20072;-74
2022/01/31 00:07:14;;;;;;;13.60;5.47;;;6.30;71.60;;;;;;5067467;28;20025;-74
2022/01/31 00:09:42;;;;;;;11.43;5.50;;;6.30;71.80;;;;;;5066416;28;20020;-74
2022/01/31 00:12:11;;;;;;;16.90;5.78;;;6.20;71.80;;;;;;5067073;28;20029;-74
2022/01/31 00:14:49;;;;;;;12.93;6.13;;;6.30;72.00;;;;;;5064355;28;20112;-74
2022/01/31 00:17:15;;;;;;;11.40;5.05;;;6.30;72.10;;;;;;5067901;28;20020;-74
2022/01/31 00:19:42;;;;;;;14.07;5.38;;;6.30;72.10;;;;;;5066740;28;20562;-74
2022/01/31 00:22:10;;;;;;;12.98;5.32;;;6.40;72.30;;;;;;5068875;28;20052;-74
2022/01/31 00:24:36;;;;;;;12.18;4.65;;;6.40;72.30;;;;;;5032369;28;1048881;-74
2022/01/31 00:27:03;;;;;;;15.25;5.35;;;6.40;72.20;;;;;;5069029;28;20074;-74
2022/01/31 00:29:28;;;;;;;11.65;4.93;;;6.40;72.20;;;;;;5066317;28;20028;-73
2022/01/31 00:31:54;;;;;;;10.68;5.20;;;6.40;72.30;;;;;;5059504;28;20108;-73
2022/01/31 00:34:20;;;;;;;15.43;5.47;;;6.40;72.50;;;;;;5069041;28;20116;-74
2022/01/31 00:36:45;;;;;;;14.27;5.82;;;6.30;72.50;;;;;;5068039;28;20533;-73
2022/01/31 00:39:11;;;;;;;12.45;5.25;;;6.40;72.70;;;;;;5063837;28;20033;-73
2022/01/31 00:41:37;;;;;;;13.82;5.35;;;6.40;72.70;;;;;;5063516;28;20085;-74
2022/01/31 00:44:16;;;;;;;11.55;4.95;;;6.40;72.80;;;;;;5067071;28;20036;-74
2022/01/31 00:46:48;;;;;;;13.63;5.55;;;6.40;73.10;;;;;;5067878;28;20016;-74
2022/01/31 00:50:06;;;;;;;13.45;5.18;;;6.40;73.40;;;;;;5067334;28;20495;-73
2022/01/31 00:52:04;;;;;;;10.45;4.88;;;6.40;73.80;;;;;;5068927;28;20031;-74
2022/01/31 00:54:31;;;;;;;10.15;4.38;;;6.40;74.00;;;;;;5069764;28;20127;-73
2022/01/31 00:56:56;;;;;;;13.00;5.63;;;6.40;74.20;;;;;;5061721;28;20020;-73
2022/01/31 00:59:22;;;;;;;14.32;5.25;;;6.40;74.70;;;;;;5068979;28;20069;-74
2022/01/31 01:01:48;;;;;;;11.88;4.88;;;6.30;75.80;;;;;;5059320;28;20032;-74
2022/01/31 01:04:14;;;;;;;17.75;5.65;;;6.20;75.50;;;;;;5063840;28;20044;-73
2022/01/31 01:06:40;;;;;;;12.68;5.05;;;6.10;76.00;;;;;;5067818;28;20021;-73
2022/01/31 01:09:07;;;;;;;13.15;5.53;;;6.20;76.10;;;;;;5068159;28;20020;-73
2022/01/31 01:11:33;;;;;;;13.18;5.18;;;6.10;76.40;;;;;;5068998;28;20024;-74
2022/01/31 01:13:59;;;;;;;10.98;4.32;;;6.10;76.70;;;;;;5068968;28;20024;-74
2022/01/31 01:16:24;;;;;;;7.88;4.05;;;6.10;76.80;;;;;;5067691;28;20372;-74
2022/01/31 01:18:50;;;;;;;11.75;4.88;;;6.10;77.10;;;;;;5083821;28;20436;-73
2022/01/31 01:21:15;;;;;;;15.45;5.55;;;6.10;77.40;;;;;;5074094;28;20416;-73
2022/01/31 01:23:41;;;;;;;15.85;5.45;;;6.10;77.50;;;;;;5061022;28;20071;-74
2022/01/31 01:26:06;;;;;;;16.17;6.18;;;6.20;78.00;;;;;;5071367;28;20528;-75
2022/01/31 01:28:32;;;;;;;17.13;6.43;;;5.90;78.40;;;;;;5071894;28;20441;-74
2022/01/31 01:30:58;;;;;;;14.95;4.97;;;5.90;78.50;;;;;;5070055;28;20017;-72
2022/01/31 01:33:25;;;;;;;15.23;6.25;;;5.90;78.70;;;;;;5071569;28;20023;-73
2022/01/31 01:35:53;;;;;;;10.80;4.90;;;5.80;79.40;;;;;;5068441;28;20077;-73
2022/01/31 01:38:19;;;;;;;11.93;4.63;;;5.80;79.90;;;;;;5066391;28;20062;-73
2022/01/31 01:40:47;;;;;;;13.48;5.03;;;5.80;80.20;;;;;;5072364;28;20368;-73
2022/01/31 01:43:14;;;;;;;13.43;5.60;;;5.80;80.30;;;;;;5071724;28;20460;-73
2022/01/31 01:45:41;;;;;;;14.48;6.20;;;5.70;80.60;;;;;;5072184;28;20029;-73
2022/01/31 01:48:07;;;;;;;14.35;5.47;;;5.80;81.00;;;;;;5072681;28;20016;-73
2022/01/31 01:50:35;;;;;;;11.23;5.65;;;5.70;81.50;;;;;;5072433;28;20031;-73
2022/01/31 01:53:01;;;;;;;13.30;5.78;;;5.60;81.70;;;;;;5071595;28;20059;-73
2022/01/31 01:55:27;;;;;;;9.45;4.75;;;5.60;81.90;;;;;;5071729;28;20170;-74
2022/01/31 01:57:53;;;;;;;8.32;5.07;;;5.50;82.20;;;;;;5069374;28;20661;-73
2022/01/31 02:00:25;;;;;;;11.23;4.90;;;5.50;82.70;;;;;;5071534;28;20028;-74
2022/01/31 02:02:51;;;;;;;12.05;5.50;;;5.60;82.50;;;;;;5067368;28;20032;-73
2022/01/31 02:05:17;;;;;;;13.52;6.93;;;5.60;82.50;;;;;;5064015;28;20051;-74
2022/01/31 02:07:43;;;;;;;9.27;5.20;;;5.60;82.70;;;;;;5071098;28;20017;-73
2022/01/31 02:10:10;;;;;;;12.05;5.80;;;5.60;82.70;;;;;;5071042;28;20028;-74
2022/01/31 02:12:46;;;;;;;7.47;4.50;;;5.60;82.60;;;;;;5070458;28;20098;-73
2022/01/31 02:15:14;;;;;;;8.80;5.13;;;5.60;82.60;;;;;;5070593;28;20005;-73
2022/01/31 02:17:40;;;;;;;8.75;4.60;;;5.70;82.70;;;;;;5066162;28;20033;-73
2022/01/31 02:20:08;;;;;;;8.15;4.22;;;5.70;82.80;;;;;;5086626;28;20818;-73
2022/01/31 02:22:34;;;;;;;9.15;5.10;;;5.70;82.90;;;;;;5067152;28;20048;-73
2022/01/31 02:25:00;;;;;;;7.45;4.72;;;5.70;83.10;;;;;;5070796;28;20033;-73
2022/01/31 02:27:28;;;;;;;9.13;4.97;;;5.80;83.10;;;;;;5070805;28;20030;-73
2022/01/31 02:29:54;;;;;;;9.63;4.82;;;5.80;83.20;;;;;;5070474;28;20021;-73
2022/01/31 02:32:22;;;;;;;11.05;4.75;;;5.90;83.20;;;;;;5070938;28;20027;-73
2022/01/31 02:34:48;;;;;;;9.70;4.18;;;5.90;83.10;;;;;;5069362;28;20032;-73
2022/01/31 02:37:14;;;;;;;8.43;4.32;;;6.00;83.00;;;;;;5070536;28;20027;-73
2022/01/31 02:39:39;;;;;;;6.78;3.92;;;6.10;83.00;;;;;;5063720;28;20028;-73
2022/01/31 02:42:05;;;;;;;12.48;5.57;;;6.10;82.90;;;;;;5069440;28;20020;-73
2022/01/31 02:44:31;;;;;;;9.80;3.80;;;6.10;83.10;;;;;;5069866;28;20455;-72
2022/01/31 02:46:57;;;;;;;4.97;3.22;;;6.10;83.40;;;;;;5070156;28;20020;-73
2022/01/31 02:49:27;;;;;;;6.50;3.78;;;6.10;83.40;;;;;;5068973;28;20052;-73
2022/01/31 02:51:56;;;;;;;7.70;3.97;;;6.20;83.60;;;;;;5071414;28;20100;-73
2022/01/31 02:54:23;;;;;;;8.77;4.55;;;6.10;83.80;;;;;;5070187;28;20103;-73
2022/01/31 02:56:49;;;;;;;7.28;3.92;;;6.20;83.80;;;;;;5069783;28;20751;-73
2022/01/31 02:59:14;;;;;;;8.13;4.65;;;6.20;83.90;;;;;;5069188;28;20063;-73
2022/01/31 03:01:40;;;;;;;9.95;3.92;;;6.30;84.00;;;;;;5070358;28;20395;-73
2022/01/31 03:04:07;;;;;;;7.43;3.17;;;6.30;84.10;;;;;;5069372;28;20032;-73
2022/01/31 03:06:33;;;;;;;5.65;2.88;;;6.40;84.40;;;;;;5069743;28;20025;-73
2022/01/31 03:08:58;;;;;;;6.20;3.17;;;6.40;84.40;;;;;;5070016;28;20083;-74
2022/01/31 03:11:24;;;;;;;5.82;3.22;;;6.50;84.40;;;;;;5064412;28;20028;-73
2022/01/31 03:13:49;;;;;;;6.53;2.95;;;6.60;84.50;;;;;;5068276;28;20394;-73
2022/01/31 03:16:15;;;;;;;3.78;2.58;;;6.60;84.50;;;;;;5072687;28;20013;-73
2022/01/31 03:18:40;;;;;;;6.50;3.08;;;6.70;84.50;;;;;;5085245;28;20034;-73
2022/01/31 03:21:06;;;;;;;5.22;2.92;;;6.70;84.60;;;;;;5069885;28;20024;-73
2022/01/31 03:23:33;;;;;;;7.70;3.63;;;6.80;84.70;;;;;;5070186;28;20039;-73
2022/01/31 03:25:59;;;;;;;8.15;3.15;;;6.80;84.70;;;;;;5065845;28;20021;-73
2022/01/31 03:28:24;;;;;;;9.25;3.55;;;6.80;84.80;;;;;;5065384;28;20032;-73
2022/01/31 03:30:51;;;;;;;10.88;3.75;;;6.90;85.00;;;;;;5069186;28;20094;-73
2022/01/31 03:33:17;;;;;;;5.97;2.90;;;6.90;85.10;;;;;;5068961;28;20024;-73
2022/01/31 03:35:42;;;;;;;9.07;3.15;;;7.00;85.00;;;;;;5068355;28;20025;-73
2022/01/31 03:38:08;;;;;;;9.90;2.80;;;7.00;84.80;;;;;;5069428;28;20047;-73
2022/01/31 03:40:33;;;;;;;7.68;2.40;;;7.10;84.70;;;;;;5067715;28;20024;-73
2022/01/31 03:42:59;;;;;;;7.63;2.30;;;7.10;84.60;;;;;;5070609;28;20027;-74
2022/01/31 03:45:25;;;;;;;8.77;2.60;;;7.10;84.50;;;;;;5069156;28;20059;-73
2022/01/31 03:47:50;;;;;;;5.90;2.95;;;7.20;84.40;;;;;;5066358;28;20118;-74
2022/01/31 03:50:18;;;;;;;10.90;2.60;;;7.20;84.40;;;;;;5069812;28;20020;-73
2022/01/31 03:52:45;;;;;;;7.22;2.05;;;7.20;84.30;;;;;;5068360;28;20467;-73
2022/01/31 03:55:13;;;;;;;9.32;2.97;;;7.20;84.30;;;;;;5069036;28;20027;-73
2022/01/31 03:57:39;;;;;;;8.73;2.28;;;7.20;84.30;;;;;;5069514;28;20024;-73
2022/01/31 04:00:10;;;;;;;9.27;2.08;;;7.20;84.30;;;;;;5068047;28;20498;-73
2022/01/31 04:02:35;;;;;;;8.10;2.70;;;7.30;85.00;;;;;;5067960;28;20032;-73
2022/01/31 04:05:01;;;;;;;7.43;2.15;;;7.30;84.20;;;;;;5066859;28;20036;-73
2022/01/31 04:07:26;;;;;;;7.53;2.08;;;7.40;84.20;;;;;;5069302;28;20020;-73
2022/01/31 04:09:53;;;;;;;10.75;2.70;;;7.40;84.00;;;;;;5068213;28;20024;-73
2022/01/31 04:12:19;;;;;;;9.25;2.15;;;7.40;83.90;;;;;;5068828;28;20370;-73
2022/01/31 04:14:44;;;;;;;10.23;2.53;;;7.40;83.80;;;;;;5068351;28;20086;-73
2022/01/31 04:17:11;;;;;;;10.82;2.25;;;7.40;83.70;;;;;;5074091;28;20024;-73
2022/01/31 04:19:38;;;;;;;7.65;2.10;;;7.40;83.60;;;;;;5072105;28;20025;-73
2022/01/31 04:22:08;;;;;;;8.43;1.98;;;7.50;83.60;;;;;;5061558;28;20066;-73
2022/01/31 04:24:34;;;;;;;8.48;2.05;;;7.40;84.00;;;;;;5067043;28;20036;-73
2022/01/31 04:27:05;;;;;;;9.82;2.35;;;7.40;83.30;;;;;;5068700;28;20013;-73
2022/01/31 04:29:34;;;;;;;6.05;1.95;;;7.40;83.20;;;;;;5067780;28;20059;-74
2022/01/31 04:31:59;;;;;;;6.22;1.77;;;7.40;83.10;;;;;;5069070;28;20021;-75
2022/01/31 04:34:25;;;;;;;8.15;2.30;;;7.50;83.10;;;;;;5069509;28;20541;-74
2022/01/31 04:36:51;;;;;;;9.20;2.75;;;7.50;83.10;;;;;;5068709;28;20050;-73
2022/01/31 04:39:18;;;;;;;9.88;2.03;;;7.50;83.00;;;;;;5068979;28;20012;-74
2022/01/31 04:41:46;;;;;;;6.80;2.28;;;7.50;83.00;;;;;;5068187;28;20017;-74
2022/01/31 04:44:12;;;;;;;11.02;2.55;;;7.40;82.90;;;;;;5063452;28;20041;-73
2022/01/31 04:46:40;;;;;;;8.80;2.20;;;7.40;82.80;;;;;;5069615;28;20021;-74
2022/01/31 04:49:06;;;;;;;7.38;1.80;;;7.40;82.80;;;;;;5068507;28;20032;-74
2022/01/31 04:51:32;;;;;;;12.10;2.50;;;7.50;82.70;;;;;;5069328;28;20479;-74
2022/01/31 04:53:58;;;;;;;9.13;2.03;;;7.40;82.70;;;;;;5069274;28;20085;-74
2022/01/31 04:56:23;;;;;;;11.95;2.95;;;7.40;82.60;;;;;;5068144;28;20016;-73
2022/01/31 04:58:49;;;;;;;11.77;2.60;;;7.40;82.60;;;;;;5066590;28;20150;-73
2022/01/31 05:01:15;;;;;;;7.38;2.20;;;7.40;82.50;;;;;;5069065;28;20024;-73
2022/01/31 05:03:43;;;;;;;10.10;2.35;;;7.40;82.30;;;;;;5066713;28;20029;-74
2022/01/31 05:06:12;;;;;;;7.60;2.20;;;7.40;82.30;;;;;;5070940;28;20467;-74
2022/01/31 05:08:39;;;;;;;7.25;2.05;;;7.30;82.20;;;;;;5072054;28;20025;-74
2022/01/31 05:11:07;;;;;;;11.70;2.60;;;7.30;82.10;;;;;;5071611;28;20025;-74
2022/01/31 05:13:34;;;;;;;9.00;2.20;;;7.40;82.20;;;;;;5071888;28;20133;-74
2022/01/31 05:15:59;;;;;;;11.48;2.90;;;7.30;82.00;;;;;;5074659;28;20050;-74
2022/01/31 05:18:25;;;;;;;10.25;2.25;;;7.30;81.90;;;;;;5084639;28;20051;-73
2022/01/31 05:20:50;;;;;;;11.25;2.63;;;7.30;81.80;;;;;;5072636;28;20493;-73
2022/01/31 05:23:16;;;;;;;10.20;2.72;;;7.30;81.80;;;;;;5072683;28;20043;-73
2022/01/31 05:25:41;;;;;;;8.90;2.20;;;7.30;81.70;;;;;;5071695;28;20021;-73
2022/01/31 05:28:07;;;;;;;9.50;2.15;;;7.30;81.70;;;;;;5072192;28;20037;-73
2022/01/31 05:30:32;;;;;;;8.88;2.45;;;7.30;81.60;;;;;;5074257;28;20026;-73
2022/01/31 05:32:58;;;;;;;10.02;2.22;;;7.30;81.60;;;;;;5082238;28;20549;-74
2022/01/31 05:35:24;;;;;;;11.77;3.13;;;7.20;81.60;;;;;;5079980;28;20518;-74
2022/01/31 05:37:49;;;;;;;6.95;2.17;;;7.20;81.60;;;;;;5079305;28;20032;-73
2022/01/31 05:40:15;;;;;;;10.45;2.70;;;7.20;81.60;;;;;;5081245;28;20079;-74
2022/01/31 05:42:40;;;;;;;9.80;2.20;;;7.20;81.60;;;;;;5073702;28;20391;-73
2022/01/31 05:45:06;;;;;;;9.77;2.53;;;7.20;81.70;;;;;;5071454;28;20032;-73
2022/01/31 05:47:33;;;;;;;6.72;1.60;;;7.10;81.80;;;;;;5070645;28;20121;-74
2022/01/31 05:49:59;;;;;;;7.20;1.92;;;7.00;81.90;;;;;;5071555;28;20017;-73
2022/01/31 05:52:25;;;;;;;9.07;1.70;;;6.90;82.20;;;;;;5075234;28;20077;-73
2022/01/31 05:54:51;;;;;;;9.02;2.22;;;6.80;82.40;;;;;;5092251;28;20028;-73
2022/01/31 05:57:16;;;;;;;6.82;1.75;;;6.80;82.70;;;;;;5091740;28;20035;-74
2022/01/31 05:59:43;;;;;;;5.93;1.92;;;6.80;82.80;;;;;;5092163;28;20035;-73
2022/01/31 06:02:09;;;;;;;7.45;1.75;;;6.70;82.80;;;;;;5074226;28;20020;-73
2022/01/31 06:04:35;;;;;;;5.95;1.50;;;6.70;82.80;;;;;;5072127;28;20111;-73
2022/01/31 06:07:01;;;;;;;5.97;1.50;;;6.70;82.90;;;;;;5061469;28;20146;-73
2022/01/31 06:09:28;;;;;;;7.22;1.77;;;6.70;82.90;;;;;;5070602;28;20468;-73
2022/01/31 06:11:57;;;;;;;6.40;1.73;;;6.60;83.00;;;;;;5078882;28;20020;-74
2022/01/31 06:14:22;;;;;;;6.55;1.90;;;6.60;83.10;;;;;;5079330;28;20113;-73
2022/01/31 06:16:48;;;;;;;5.45;1.45;;;6.50;83.20;;;;;;5079545;28;20471;-73
2022/01/31 06:19:13;;;;;;;6.90;1.50;;;6.50;83.20;;;;;;5071415;28;20031;-73
2022/01/31 06:21:39;;;;;;;6.00;1.58;;;6.50;83.20;;;;;;5068792;28;20025;-73
2022/01/31 06:24:09;;;;;;;6.50;1.90;;;6.50;83.30;;;;;;5068879;28;20029;-73
2022/01/31 06:26:36;;;;;;;5.10;1.60;;;6.50;83.30;;;;;;5067865;28;20025;-73
2022/01/31 06:29:02;;;;;;;6.60;1.73;;;6.50;83.30;;;;;;5075331;28;20497;-73
2022/01/31 06:31:29;;;;;;;7.22;1.48;;;6.50;83.50;;;;;;5076844;28;20498;-73
2022/01/31 06:33:54;;;;;;;10.48;2.53;;;6.50;83.50;;;;;;5070954;28;20062;-73
2022/01/31 06:36:22;;;;;;;6.20;2.00;;;6.50;83.70;;;;;;5068677;28;20121;-73
2022/01/31 06:38:50;;;;;;;7.32;1.73;;;6.50;83.70;;;;;;5065363;28;20024;-80
2022/01/31 06:41:19;;;;;;;8.65;1.80;;;6.60;83.80;;;;;;5065562;28;20056;-76
2022/01/31 06:43:45;;;;;;;12.32;2.38;;;6.60;83.90;;;;;;5064334;28;20450;-75
2022/01/31 06:46:11;;;;;;;9.23;2.15;;;6.50;83.90;;;;;;5060301;28;20028;-74
2022/01/31 06:48:37;;;;;;;7.22;1.77;;;6.50;84.10;;;;;;5066674;28;20082;-75
2022/01/31 06:51:02;;;;;;;12.35;2.50;;;6.40;84.20;;;;;;5067627;28;20046;-75
2022/01/31 06:53:29;;;;;;;11.48;2.40;;;6.40;84.20;;;;;;5062302;28;20045;-74
2022/01/31 06:55:56;;;;;;;9.95;1.95;;;6.50;84.30;;;;;;5065423;28;20119;-74
2022/01/31 06:58:22;;;;;;;9.50;2.13;;;6.50;84.50;;;;;;5062658;28;20474;-74
2022/01/31 07:00:48;;;;;;;16.42;2.60;;;6.50;84.50;;;;;;5063051;28;20032;-74
2022/01/31 07:03:14;;;;;;;13.68;2.58;;;6.50;84.50;;;;;;5072074;28;20578;-74
2022/01/31 07:05:41;;;;;;;7.95;2.25;;;6.50;84.50;;;;;;5071047;28;20041;-74
2022/01/31 07:08:06;;;;;;;9.35;2.40;;;6.50;84.60;;;;;;5075758;28;20025;-74
2022/01/31 07:10:33;;;;;;;8.48;2.25;;;6.50;84.70;;;;;;5064333;28;20535;-75
2022/01/31 07:12:59;;;;;;;13.70;2.45;;;6.40;84.80;;;;;;5069596;28;20479;-75
2022/01/31 07:15:25;;;;;;;10.65;2.08;;;6.40;84.80;;;;;;5067631;28;20112;-75
2022/01/31 07:17:50;;;;;;;7.68;1.83;;;6.40;84.90;;;;;;5072693;28;20123;-75
2022/01/31 07:20:33;;;;;;;9.27;2.50;;;6.40;84.90;;;;;;5072151;28;20020;-74
2022/01/31 07:23:03;;;;;;;7.63;2.03;;;6.40;85.00;;;;;;5069395;28;20017;-75
2022/01/31 07:25:35;;;;;;;10.15;2.30;;;6.40;85.00;;;;;;5065096;28;20082;-74
2022/01/31 07:28:16;;;;;;;8.90;2.03;;;6.40;85.10;;;;;;5076623;28;20049;-75
2022/01/31 07:30:46;;;;;;;11.73;2.30;;;6.40;85.20;;;;;;5058832;28;20605;-75
2022/01/31 07:33:12;;;;;;;12.27;2.03;;;6.40;85.20;;;;;;5063437;28;20024;-75
2022/01/31 07:35:38;;;;;;;9.40;1.90;;;6.40;85.30;;;;;;5078967;28;20502;-73
2022/01/31 07:38:04;;;;;;;9.95;2.00;;;6.40;85.30;;;;;;5072986;28;20037;-74
2022/01/31 07:40:29;;;;;;;11.73;2.13;;;6.40;85.30;;;;;;5071552;28;20020;-76
2022/01/31 07:42:55;;;;;;;9.23;2.00;;;6.40;85.20;;;;;;5073903;28;20112;-76
2022/01/31 07:45:21;;;;;;;10.30;2.03;;;6.30;85.30;;;;;;5074712;28;20434;-76
2022/01/31 07:47:47;;;;;;;12.20;2.42;;;6.30;85.40;;;;;;5079376;28;20051;-75
2022/01/31 07:50:13;;;;;;;8.00;1.98;;;6.40;85.60;;;;;;5075662;28;20043;-75
2022/01/31 07:52:40;;;;;;;6.80;2.03;;;6.40;85.60;;;;;;5074298;28;20050;-74
2022/01/31 07:55:06;;;;;;;8.77;2.55;;;6.40;85.60;;;;;;5074300;28;20044;-74
2022/01/31 07:57:33;;;;;;;13.57;2.60;;;6.40;85.60;;;;;;5072975;28;20081;-74
2022/01/31 08:00:00;;;;;;;8.48;2.30;;;6.40;85.70;;;;;;5070415;28;20026;-74
2022/01/31 08:02:26;;;;;;;14.02;2.83;;;6.40;85.80;;;;;;5059023;28;20858;-74
2022/01/31 08:04:54;;;;;;;6.90;1.80;;;6.40;85.80;;;;;;5061188;28;20040;-75
2022/01/31 08:07:23;;;;;;;8.77;2.28;;;6.40;85.90;;;;;;5066648;28;20432;-76
2022/01/31 08:09:48;;;;;;;8.70;2.00;;;6.40;85.90;;;;;;5070315;28;20103;-76
2022/01/31 08:12:14;;;;;;;11.32;2.15;;;6.40;85.90;;;;;;5067006;28;20975;-75
2022/01/31 08:14:40;;;;;;;9.68;2.42;;;6.40;85.90;;;;;;5071187;28;20074;-74
2022/01/31 08:17:05;;;;;;;8.00;2.30;;;6.40;85.90;;;;;;5063121;28;20055;-74
2022/01/31 08:19:31;;;;;;;12.60;2.55;;;6.40;85.90;;;;;;5070711;28;20119;-75
2022/01/31 08:21:57;;;;;;;13.43;3.15;;;6.40;86.00;;;;;;5073878;28;20016;-78
2022/01/31 08:24:22;;;;;;;13.30;2.97;;;6.40;86.00;;;;;;5069014;28;20451;-75
2022/01/31 08:26:48;;;;;;;17.30;3.42;;;6.40;86.00;;;;;;5074711;28;20028;-75
2022/01/31 08:29:24;;;;;;;10.63;2.65;;;6.40;86.10;;;;;;5058940;28;20032;-79
2022/01/31 08:31:52;;;;;;;11.10;2.80;;;6.40;86.10;;;;;;5071921;28;20036;-78
2022/01/31 08:35:47;;;;;;;11.40;2.35;;;6.50;86.10;;;;;;5069959;28;20051;-77
2022/01/31 08:37:05;;;;;;;13.80;2.30;;;6.50;86.00;;;;;;5078228;28;20028;-78
2022/01/31 08:39:31;;;;;;;11.75;2.80;;;6.50;85.90;;;;;;5073905;28;20082;-77
2022/01/31 08:41:56;;;;;;;13.75;3.13;;;6.50;86.00;;;;;;5072185;28;20024;-78
2022/01/31 08:44:23;;;;;;;14.25;3.05;;;6.50;86.10;;;;;;5073655;28;20437;-77
2022/01/31 08:46:50;;;;;;;13.43;2.55;;;6.40;86.10;;;;;;5073365;28;20523;-77
2022/01/31 08:49:16;;;;;;;17.73;2.80;;;6.50;86.20;;;;;;5074415;28;20386;-77
2022/01/31 08:51:43;;;;;;;12.15;2.80;;;6.40;86.20;;;;;;5077614;28;20020;-77
2022/01/31 08:54:10;;;;;;;15.38;3.38;;;6.40;86.30;;;;;;5076623;28;20434;-77
2022/01/31 08:56:40;;;;;;;15.93;3.28;;;6.40;86.30;;;;;;5075381;28;20037;-77
2022/01/31 08:59:15;;;;;;;15.00;3.03;;;6.50;86.40;;;;;;5071125;28;20571;-76
2022/01/31 09:01:43;;;;;;;12.77;2.88;;;6.50;86.30;;;;;;5072721;28;20035;-77
2022/01/31 09:04:11;;;;;;;17.02;3.20;;;6.50;86.30;;;;;;5078423;28;20028;-76
2022/01/31 09:06:38;;;;;;;13.20;2.88;;;6.50;86.30;;;;;;5069486;28;20131;-78
2022/01/31 09:09:08;;;;;;;13.88;3.28;;;6.40;86.30;;;;;;5068764;28;20028;-82
2022/01/31 09:11:36;;;;;;;13.95;3.47;;;6.50;86.40;;;;;;5068886;28;20111;-76
2022/01/31 09:14:02;;;;;;;14.70;3.05;;;6.50;86.50;;;;;;5076312;28;20020;-79
2022/01/31 09:16:28;;;;;;;15.60;2.90;;;6.50;86.50;;;;;;5065740;28;20029;-75
2022/01/31 09:18:54;;;;;;;14.77;3.22;;;6.50;86.50;;;;;;5066965;28;20506;-75
2022/01/31 09:21:20;;;;;;;19.60;3.72;;;6.40;86.50;;;;;;5062345;28;20023;-76
2022/01/31 09:23:51;;;;;;;18.90;3.90;;;6.40;86.70;;;;;;5062714;28;20515;-75
2022/01/31 09:26:18;;;;;;;14.00;3.08;;;6.40;86.70;;;;;;5075205;28;20031;-74
2022/01/31 09:28:44;;;;;;;16.20;3.47;;;6.40;86.80;;;;;;5077764;28;20028;-74
2022/01/31 09:31:09;;;;;;;14.23;3.08;;;6.40;86.80;;;;;;5078119;28;20048;-75
2022/01/31 09:33:35;;;;;;;16.42;3.35;;;6.40;86.80;;;;;;5072626;28;20111;-76
2022/01/31 09:36:01;;;;;;;24.60;4.25;;;6.40;86.90;;;;;;5070500;28;20541;-75
2022/01/31 09:38:26;;;;;;;19.05;4.32;;;6.40;87.00;;;;;;5069115;28;20472;-77
2022/01/31 09:40:53;;;;;;;13.85;3.53;;;6.40;87.10;;;;;;5070310;28;20035;-78
2022/01/31 09:46:05;;;;;;;22.55;4.38;;;6.50;87.30;;;;;;5065986;28;20361;-74
2022/01/31 09:48:33;;;;;;;23.80;4.38;;;6.50;87.20;;;;;;5066515;28;20039;-74
2022/01/31 09:51:08;;;;;;;26.65;4.43;;;6.50;87.10;;;;;;5068163;28;20048;-76
2022/01/31 09:53:38;;;;;;;18.75;3.85;;;6.50;87.10;;;;;;5065033;28;20189;-75
2022/01/31 09:56:08;;;;;;;21.23;3.85;;;6.50;87.00;;;;;;5065178;28;20372;-77
2022/01/31 09:58:34;;;;;;;15.27;3.95;;;6.50;87.00;;;;;;5060664;28;20068;-77
2022/01/31 10:01:13;;;;;;;19.95;4.22;;;6.60;87.10;;;;;;5069833;28;20027;-77
2022/01/31 10:03:50;;;;;;;15.75;3.97;;;6.50;87.00;;;;;;5063519;28;20036;-76
2022/01/31 10:06:21;;;;;;;16.92;3.40;;;6.50;87.10;;;;;;5065411;28;20082;-75
2022/01/31 10:08:48;;;;;;;20.48;4.60;;;6.50;87.20;;;;;;5062628;28;20094;-76
2022/01/31 10:11:29;;;;;;;21.83;3.97;;;6.50;87.10;;;;;;5063883;28;20028;-76
2022/01/31 10:16:54;;;;;;;24.48;4.90;;;6.50;87.20;;;;;;5062122;28;20043;-75
2022/01/31 10:19:20;;;;;;;17.45;3.92;;;6.50;87.20;;;;;;5069419;28;20017;-77
2022/01/31 10:22:07;;;;;;;18.38;4.15;;;6.50;87.20;;;;;;5059877;28;20075;-77
2022/01/31 10:24:34;;;;;;;22.38;4.43;;;6.50;87.30;;;;;;5061454;28;20029;-76
2022/01/31 10:27:06;;;;;;;20.30;4.35;;;6.40;87.20;;;;;;5069492;28;20062;-75
2022/01/31 10:29:32;;;;;;;26.92;5.28;;;6.50;87.30;;;;;;5066116;28;20032;-75
2022/01/31 10:32:31;;;;;;;21.65;4.38;;;6.50;87.20;;;;;;5065768;28;20389;-77
2022/01/31 10:35:00;;;;;;;24.98;5.05;;;6.50;87.30;;;;;;5061710;28;20040;-76
2022/01/31 10:37:29;;;;;;;26.20;4.90;;;6.50;87.20;;;;;;5067391;28;20020;-76
2022/01/31 10:45:43;;;;;;;25.38;5.00;;;6.60;87.40;;;;;;5064996;28;20089;-77
2022/01/31 10:53:40;;;;;;;21.70;4.57;;;6.50;87.40;;;;;;5060119;28;20070;-75
2022/01/31 10:56:06;;;;;;;21.85;4.75;;;6.60;87.50;;;;;;5059363;28;20100;-75
2022/01/31 10:58:31;;;;;;;25.70;4.90;;;6.60;87.40;;;;;;5065518;28;20131;-75
2022/01/31 11:01:17;;;;;;;19.95;4.03;;;6.60;87.40;;;;;;5073381;28;20028;-77
2022/01/31 11:03:45;;;;;;;21.65;4.13;;;6.60;87.50;;;;;;5061531;28;20139;-75
2022/01/31 11:06:11;;;;;;;21.60;4.30;;;6.60;87.40;;;;;;5060650;28;20029;-76
2022/01/31 11:08:38;;;;;;;18.85;4.53;;;6.60;87.50;;;;;;5058789;28;20017;-75
2022/01/31 11:11:05;;;;;;;16.65;4.10;;;6.60;87.50;;;;;;5065082;28;20074;-76
2022/01/31 11:13:33;;;;;;;19.60;3.95;;;6.60;87.50;;;;;;5075725;28;20032;-77
2022/01/31 11:15:59;;;;;;;15.50;4.18;;;6.60;87.60;;;;;;5074244;28;20090;-77
2022/01/31 11:18:29;;;;;;;18.67;3.92;;;6.60;87.60;;;;;;5061472;28;20383;-78
2022/01/31 11:20:59;;;;;;;15.77;3.25;;;6.60;87.50;;;;;;5061605;28;20392;-76
2022/01/31 11:23:27;;;;;;;17.80;4.25;;;6.70;87.60;;;;;;5066146;28;20024;-76
2022/01/31 11:25:56;;;;;;;15.45;3.38;;;6.60;87.50;;;;;;5062601;28;20107;-76
2022/01/31 11:28:23;;;;;;;21.77;3.65;;;6.60;87.60;;;;;;5068679;28;20024;-76
2022/01/31 11:30:49;;;;;;;14.00;3.28;;;6.60;87.70;;;;;;5056364;28;20025;-76
2022/01/31 11:33:15;;;;;;;13.27;2.78;;;6.60;87.70;;;;;;5066704;28;20090;-76
2022/01/31 11:35:41;;;;;;;14.88;2.97;;;6.60;87.70;;;;;;5066302;28;20050;-77
2022/01/31 11:38:06;;;;;;;13.50;2.97;;;6.60;87.70;;;;;;5069210;28;20071;-77
2022/01/31 11:40:32;;;;;;;14.95;3.40;;;6.70;87.70;;;;;;5063253;28;20025;-75
2022/01/31 11:42:58;;;;;;;16.52;3.30;;;6.60;87.70;;;;;;5066593;28;20476;-76
2022/01/31 11:45:34;;;;;;;12.23;2.65;;;6.60;88.40;;;;;;5066022;28;20090;-75
2022/01/31 11:48:05;;;;;;;13.55;3.45;;;6.60;87.90;;;;;;5076944;28;20016;-77
2022/01/31 11:50:31;;;;;;;12.98;2.72;;;6.60;88.00;;;;;;5061750;28;20025;-78
2022/01/31 11:53:00;;;;;;;16.17;4.32;;;6.60;88.10;;;;;;5067520;28;20028;-78
2022/01/31 11:55:34;;;;;;;13.27;3.28;;;6.60;88.20;;;;;;5066505;28;20083;-78
2022/01/31 11:58:01;;;;;;;13.73;3.13;;;6.70;88.40;;;;;;5059211;28;20024;-76
2022/01/31 12:00:28;;;;;;;15.35;3.33;;;6.70;88.50;;;;;;5062913;28;20024;-79
2022/01/31 12:03:07;;;;;;;14.32;3.38;;;6.70;88.40;;;;;;5067133;28;20024;-78
2022/01/31 12:05:36;;;;;;;16.52;3.78;;;6.70;88.60;;;;;;5066366;28;20102;-77
2022/01/31 12:08:15;;;;;;;14.35;3.72;;;6.70;88.60;;;;;;5067643;28;20049;-78
2022/01/31 12:10:46;;;;;;;12.90;2.70;;;6.70;88.60;;;;;;5071284;28;20032;-78
2022/01/31 12:13:36;;;;;;;18.08;4.00;;;6.70;88.60;;;;;;5061787;28;20152;-78
2022/01/31 12:24:09;;;;;;;22.63;7.53;;;6.80;88.60;;;;;;5060627;28;20090;-78
2022/01/31 12:26:37;;;;;;;18.13;4.45;;;6.80;88.60;;;;;;5067544;28;20025;-76
2022/01/31 12:29:07;;;;;;;19.30;5.35;;;6.80;88.60;;;;;;5066576;28;20391;-77
2022/01/31 12:31:45;;;;;;;16.55;4.03;;;6.80;88.70;;;;;;5048380;28;20579;-76
2022/01/31 12:34:22;;;;;;;20.40;5.90;;;6.70;88.60;;;;;;5063581;28;20035;-75
2022/01/31 12:36:54;;;;;;;16.63;3.78;;;6.80;88.80;;;;;;5061374;28;20045;-75
2022/01/31 12:39:29;;;;;;;15.15;3.78;;;6.80;88.70;;;;;;5052762;28;20033;-79
2022/01/31 12:42:03;;;;;;;15.32;3.95;;;6.80;88.70;;;;;;5069119;28;20028;-73
2022/01/31 12:44:32;;;;;;;16.45;3.35;;;6.80;88.60;;;;;;5062138;28;20063;-74
2022/01/31 12:47:15;;;;;;;17.00;4.35;;;6.80;89.40;;;;;;5055673;28;20507;-76
2022/01/31 12:49:42;;;;;;;12.30;3.30;;;6.90;88.90;;;;;;5062149;28;20024;-75
2022/01/31 12:52:10;;;;;;;15.70;3.15;;;6.90;88.90;;;;;;5064069;28;20502;-76
2022/01/31 12:54:36;;;;;;;13.50;3.33;;;6.90;88.90;;;;;;5066835;28;20032;-75
2022/01/31 12:57:13;;;;;;;17.10;3.85;;;6.90;88.90;;;;;;5064564;28;20013;-77
2022/01/31 12:59:40;;;;;;;19.92;4.30;;;6.90;89.00;;;;;;5053255;28;20024;-74
2022/01/31 13:02:10;;;;;;;23.10;4.47;;;6.90;89.10;;;;;;5056496;28;20033;-75
2022/01/31 13:04:38;;;;;;;19.48;3.85;;;6.80;89.10;;;;;;5060387;28;20077;-74
2022/01/31 13:07:05;;;;;;;16.13;3.42;;;6.80;89.10;;;;;;5055388;28;20036;-76
2022/01/31 13:09:35;;;;;;;18.83;4.00;;;6.80;89.20;;;;;;5065314;28;20030;-76
2022/01/31 13:12:04;;;;;;;18.63;4.20;;;6.90;89.30;;;;;;5069364;28;20016;-75
2022/01/31 13:14:35;;;;;;;15.32;3.60;;;6.90;89.30;;;;;;5066538;28;20025;-75
2022/01/31 13:17:09;;;;;;;19.08;3.67;;;6.90;89.30;;;;;;5058333;28;20025;-78
2022/01/31 13:19:42;;;;;;;18.77;3.88;;;6.90;89.40;;;;;;5058496;28;20115;-76